createdAt,value
2019-01-30T00:00:53.062Z,28.53
2019-01-30T00:05:58.084Z,29.40
2019-01-30T00:11:03.117Z,23.87
2019-01-30T00:16:08.141Z,26.00
2019-01-30T00:21:13.154Z,26.00
2019-01-30T00:26:18.177Z,26.43
2019-01-30T00:31:23.197Z,25.37
2019-01-30T00:36:28.224Z,28.83
2019-01-30T00:41:33.265Z,29.10
2019-01-30T00:46:38.286Z,26.17
2019-01-30T00:51:43.347Z,26.37
2019-01-30T00:56:48.365Z,27.40
2019-01-30T01:01:53.405Z,26.30
2019-01-30T01:06:58.442Z,23.07
2019-01-30T01:12:03.516Z,24.43
2019-01-30T01:17:08.543Z,24.40
2019-01-30T01:22:13.631Z,25.13
2019-01-30T01:27:18.818Z,22.60
2019-01-30T01:32:23.760Z,23.60
2019-01-30T01:37:28.778Z,22.03
2019-01-30T01:42:33.811Z,24.10
2019-01-30T01:47:38.853Z,23.00
2019-01-30T01:52:43.921Z,22.03
2019-01-30T01:57:49.346Z,25.10
2019-01-30T02:02:54.376Z,25.67
2019-01-30T02:07:59.385Z,25.40
2019-01-30T02:13:05.165Z,28.17
2019-01-30T02:18:10.139Z,28.87
2019-01-30T02:23:15.216Z,29.10
2019-01-30T02:28:20.230Z,32.73
2019-01-30T02:33:25.237Z,33.73
2019-01-30T02:38:30.245Z,34.27
2019-01-30T02:43:35.290Z,33.73
2019-01-30T02:48:40.307Z,37.90
2019-01-30T02:53:45.370Z,35.97
2019-01-30T02:58:50.387Z,35.97
2019-01-30T03:03:55.408Z,36.47
2019-01-30T03:09:00.434Z,37.23
2019-01-30T03:14:05.447Z,37.90
2019-01-30T03:19:10.475Z,36.73
2019-01-30T03:24:15.488Z,34.87
2019-01-30T03:29:21.982Z,35.13
2019-01-30T03:34:26.999Z,33.00
2019-01-30T03:39:32.045Z,32.00
2019-01-30T03:44:37.073Z,33.13
2019-01-30T03:49:42.119Z,32.00
2019-01-30T03:54:47.208Z,30.90
2019-01-30T03:59:52.226Z,29.67
2019-01-30T04:04:57.235Z,29.27
2019-01-30T04:10:02.271Z,35.27
2019-01-30T04:15:08.075Z,39.43
2019-01-30T04:20:14.104Z,39.63
2019-01-30T04:25:19.240Z,35.40
2019-01-30T04:30:25.596Z,35.83
2019-01-30T04:35:30.622Z,35.30
2019-01-30T04:40:35.633Z,37.93
2019-01-30T04:45:41.045Z,37.97
2019-01-30T04:50:46.080Z,37.37
2019-01-30T04:55:51.547Z,35.80
2019-01-30T05:00:56.572Z,35.17
2019-01-30T05:06:01.808Z,36.17
2019-01-30T05:11:06.845Z,32.03
2019-01-30T05:16:11.875Z,34.00
2019-01-30T05:21:16.900Z,35.07
2019-01-30T05:26:21.923Z,34.87
2019-01-30T05:31:26.988Z,34.87
2019-01-30T05:36:31.997Z,30.63
2019-01-30T05:41:37.524Z,32.30
2019-01-30T05:46:42.542Z,31.33
2019-01-30T05:51:47.616Z,31.83
2019-01-30T05:56:52.628Z,32.53
2019-01-30T06:01:57.647Z,31.27
2019-01-30T06:07:02.659Z,24.47
2019-01-30T06:12:07.694Z,27.57
2019-01-30T06:17:12.711Z,28.00
2019-01-30T06:22:17.744Z,27.40
2019-01-30T06:27:22.760Z,28.67
2019-01-30T06:32:27.784Z,32.30
2019-01-30T06:37:32.797Z,34.13
2019-01-30T06:42:37.816Z,34.93
2019-01-30T06:47:43.243Z,34.73
2019-01-30T06:52:48.303Z,35.17
2019-01-30T06:57:55.056Z,30.10
2019-01-30T07:03:00.489Z,28.70
2019-01-30T07:08:05.585Z,26.23
2019-01-30T07:13:10.672Z,25.80
2019-01-30T07:18:16.159Z,24.67
2019-01-30T07:23:21.190Z,23.57
2019-01-30T07:28:26.231Z,23.80
2019-01-30T07:33:31.276Z,27.67
2019-01-30T07:38:36.293Z,28.57
2019-01-30T07:43:41.315Z,30.80
2019-01-30T07:48:46.336Z,29.40
2019-01-30T07:53:51.462Z,29.93
2019-01-30T07:58:56.492Z,31.03
2019-01-30T08:04:01.573Z,32.33
2019-01-30T08:09:09.896Z,27.70
2019-01-30T08:14:15.198Z,30.37
2019-01-30T08:19:20.214Z,30.00
2019-01-30T08:24:25.280Z,27.03
2019-01-30T08:29:30.715Z,29.57
2019-01-30T08:34:35.880Z,32.80
2019-01-30T08:39:40.917Z,29.97
2019-01-30T08:44:46.999Z,30.23
2019-01-30T08:49:52.574Z,31.17
2019-01-30T08:54:58.115Z,31.90
2019-01-30T09:00:04.758Z,31.23
2019-01-30T09:05:10.476Z,31.03
2019-01-30T09:10:34.710Z,29.10
2019-01-30T09:15:40.927Z,28.70
2019-01-30T09:20:46.027Z,27.50
2019-01-30T09:25:51.146Z,23.77
2019-01-30T09:30:56.256Z,23.70
2019-01-30T09:36:01.367Z,20.73
2019-01-30T09:41:06.785Z,20.87
2019-01-30T09:46:11.888Z,21.03
2019-01-30T09:51:16.999Z,19.50
2019-01-30T09:56:22.091Z,28.00
2019-01-30T10:01:30.195Z,28.63
2019-01-30T10:06:35.220Z,28.83
2019-01-30T10:11:40.269Z,31.60
2019-01-30T10:16:47.126Z,27.70
2019-01-30T10:21:52.194Z,29.10
2019-01-30T10:26:57.250Z,29.40
2019-01-30T10:32:02.291Z,33.33
2019-01-30T10:37:07.372Z,29.03
2019-01-30T10:42:12.415Z,29.80
2019-01-30T10:47:20.039Z,31.73
2019-01-30T10:52:25.080Z,34.83
2019-01-30T10:57:30.213Z,40.03
2019-01-30T11:02:36.295Z,48.77
2019-01-30T11:07:41.293Z,51.13
2019-01-30T11:12:46.580Z,50.57
2019-01-30T11:17:51.587Z,51.90
2019-01-30T11:22:56.592Z,56.47
2019-01-30T11:28:01.627Z,54.33
2019-01-30T11:33:06.659Z,58.30
2019-01-30T11:38:11.686Z,54.27
2019-01-30T11:43:16.689Z,55.97
2019-01-30T11:48:21.695Z,58.03
2019-01-30T11:53:26.714Z,54.00
2019-01-30T11:58:31.691Z,54.07
2019-01-30T12:03:36.658Z,59.60
2019-01-30T12:08:41.838Z,53.87
2019-01-30T12:13:46.790Z,54.77
2019-01-30T12:18:51.795Z,49.07
2019-01-30T12:23:56.767Z,47.07
2019-01-30T12:29:01.765Z,50.83
2019-01-30T12:34:06.732Z,55.43
2019-01-30T12:39:11.819Z,55.10
2019-01-30T12:44:16.810Z,58.03
2019-01-30T12:49:21.870Z,49.70
2019-01-30T12:54:26.779Z,49.87
2019-01-30T12:59:31.758Z,49.63
2019-01-30T13:04:38.818Z,48.87
2019-01-30T13:09:43.351Z,49.77
2019-01-30T13:14:48.375Z,48.67
2019-01-30T13:19:53.347Z,49.03
2019-01-30T13:24:58.343Z,52.77
2019-01-30T13:30:03.331Z,54.70
2019-01-30T13:35:08.754Z,52.30
2019-01-30T13:40:17.770Z,51.93
2019-01-30T13:45:23.282Z,55.20
2019-01-30T13:50:28.710Z,58.10
2019-01-30T13:55:33.691Z,57.50
2019-01-30T14:00:38.830Z,57.87
2019-01-30T14:05:43.892Z,58.60
2019-01-30T14:10:48.859Z,48.57
2019-01-30T14:15:53.870Z,45.80
2019-01-30T14:20:58.862Z,47.83
2019-01-30T14:26:04.052Z,43.63
2019-01-30T14:31:09.240Z,43.53
2019-01-30T14:36:14.195Z,45.03
2019-01-30T14:41:19.149Z,45.37
2019-01-30T14:46:24.124Z,45.63
2019-01-30T14:51:29.127Z,44.47
2019-01-30T14:56:34.146Z,44.83
2019-01-30T15:01:39.145Z,45.70
2019-01-30T15:06:44.175Z,48.73
2019-01-30T15:11:49.322Z,48.87
2019-01-30T15:16:54.645Z,45.93
2019-01-30T15:21:59.642Z,44.97
2019-01-30T15:27:04.606Z,45.40
2019-01-30T15:32:09.604Z,43.73
2019-01-30T15:37:14.577Z,46.20
2019-01-30T15:42:19.560Z,45.37
2019-01-30T15:47:24.539Z,46.17
2019-01-30T15:52:29.514Z,51.10
2019-01-30T15:57:34.540Z,46.60
2019-01-30T16:02:39.520Z,44.83
2019-01-30T16:07:44.481Z,45.67
2019-01-30T16:12:49.469Z,41.33
2019-01-30T16:17:54.468Z,39.40
2019-01-30T16:22:59.434Z,37.03
2019-01-30T16:28:04.759Z,38.53
2019-01-30T16:33:09.723Z,36.13
2019-01-30T16:38:14.690Z,35.37
2019-01-30T16:43:19.656Z,33.10
2019-01-30T16:48:24.823Z,28.97
2019-01-30T16:53:29.748Z,27.43
2019-01-30T16:58:34.774Z,27.07
2019-01-30T17:03:39.762Z,23.83
2019-01-30T17:08:44.985Z,21.57
2019-01-30T17:13:50.036Z,22.80
2019-01-30T17:18:55.008Z,23.23
2019-01-30T17:24:00.030Z,24.80
2019-01-30T17:29:05.135Z,24.73
2019-01-30T17:34:10.134Z,23.97
2019-01-30T17:39:15.176Z,25.97
2019-01-30T17:44:20.150Z,29.73
2019-01-30T17:49:25.121Z,26.97
2019-01-30T17:54:30.267Z,27.30
2019-01-30T17:59:35.305Z,29.63
2019-01-30T18:04:40.288Z,32.33
2019-01-30T18:09:45.350Z,32.73
2019-01-30T18:14:50.334Z,36.13
2019-01-30T18:19:55.311Z,43.27
2019-01-30T18:25:00.303Z,39.87
2019-01-30T18:30:07.143Z,42.43
2019-01-30T18:35:12.627Z,43.90
2019-01-30T18:40:19.562Z,43.07
2019-01-30T18:45:25.784Z,42.27
2019-01-30T18:50:30.875Z,38.23
2019-01-30T18:55:36.170Z,36.27
2019-01-30T19:00:43.357Z,38.00
2019-01-30T19:05:49.123Z,40.30
2019-01-30T19:10:54.095Z,41.23
2019-01-30T19:15:59.153Z,39.83
2019-01-30T19:21:04.123Z,40.33
2019-01-30T19:26:08.379Z,41.50
2019-01-30T19:31:13.379Z,38.27
2019-01-30T19:36:18.351Z,40.90
2019-01-30T19:41:23.339Z,41.37
2019-01-30T19:46:28.359Z,43.53
2019-01-30T19:51:33.340Z,41.63
2019-01-30T19:56:38.365Z,42.43
2019-01-30T20:01:43.354Z,39.63
2019-01-30T20:06:48.335Z,42.33
2019-01-30T20:11:53.318Z,41.07
2019-01-30T20:16:58.294Z,41.33
2019-01-30T20:22:03.258Z,44.27
2019-01-30T20:27:08.247Z,46.43
2019-01-30T20:32:13.234Z,44.43
2019-01-30T20:37:25.836Z,47.40
2019-01-30T20:42:24.862Z,49.77
2019-01-30T20:47:29.866Z,48.83
2019-01-30T20:52:34.882Z,50.93
2019-01-30T20:57:40.000Z,47.03
2019-01-30T21:02:44.972Z,49.83
2019-01-30T21:07:49.998Z,54.47
2019-01-30T21:12:55.030Z,54.87
2019-01-30T21:18:00.015Z,96.03
2019-01-30T21:23:05.324Z,54.63
2019-01-30T21:28:10.328Z,58.33
2019-01-30T21:33:15.303Z,60.70
2019-01-30T21:38:20.354Z,59.30
2019-01-30T21:43:25.340Z,64.77
2019-01-30T21:48:30.322Z,61.67
2019-01-30T21:53:35.322Z,79.63
2019-01-30T21:58:40.318Z,70.70
2019-01-30T22:03:45.302Z,73.83
2019-01-30T22:08:50.291Z,77.70
2019-01-30T22:13:57.200Z,74.17
2019-01-30T22:19:01.846Z,69.57
2019-01-30T22:24:07.147Z,69.13
2019-01-30T22:29:12.140Z,66.50
2019-01-30T22:34:17.104Z,66.30
2019-01-30T22:39:22.133Z,72.53
2019-01-30T22:44:27.135Z,75.43
2019-01-30T22:49:32.111Z,77.13
2019-01-30T22:54:37.110Z,70.13
2019-01-30T22:59:42.330Z,68.73
2019-01-30T23:05:09.376Z,70.57
2019-01-30T23:10:49.803Z,64.43
2019-01-30T23:16:32.031Z,66.23
2019-01-30T23:21:45.350Z,65.97
2019-01-30T23:27:18.851Z,65.53
2019-01-30T23:32:48.550Z,69.63
2019-01-30T23:38:59.590Z,65.73
2019-01-30T23:44:24.626Z,56.73
2019-01-30T23:50:32.145Z,65.23
2019-01-30T23:56:08.703Z,63.50
